Time;durP1;ratioP1;P1;durP2;ratioP2;P2;SDS_P1;SDS_P2;PMS_P1;PMS_P2;Temp;Humidity;BMP_temperature;BMP_pressure;BME280_temperature;BME280_humidity;BME280_pressure;Samples;Min_cycle;Max_cycle;Signal;HPM_P1;HPM_P2
2022/10/25 00:01:02;;;;;;;0.45;0.45;;;12.30;99.90;;;;;;4846096;29;20113;-78
2022/10/25 00:03:32;;;;;;;0.10;0.10;;;12.30;99.90;;;;;;4845009;29;20034;-79
2022/10/25 00:05:58;;;;;;;0.13;0.13;;;12.30;99.90;;;;;;4844419;29;20036;-78
2022/10/25 00:08:23;;;;;;;0.00;0.00;;;12.20;99.90;;;;;;4844311;29;20112;-77
2022/10/25 00:10:49;;;;;;;0.10;0.10;;;12.20;99.90;;;;;;4848388;29;20041;-80
2022/10/25 00:13:21;;;;;;;0.35;0.35;;;12.10;99.90;;;;;;4850569;29;20029;-78
2022/10/25 00:15:52;;;;;;;0.10;0.10;;;12.10;99.90;;;;;;4845588;29;20049;-77
2022/10/25 00:18:18;;;;;;;0.10;0.10;;;12.10;99.90;;;;;;4845141;29;20368;-78
2022/10/25 00:20:45;;;;;;;0.00;0.00;;;12.10;99.90;;;;;;4854532;29;20036;-77
2022/10/25 00:23:15;;;;;;;4.07;3.92;;;12.00;99.90;;;;;;4869530;29;20057;-79
2022/10/25 00:25:41;;;;;;;0.10;0.10;;;12.00;99.90;;;;;;4864696;29;20301;-78
2022/10/25 00:28:07;;;;;;;0.10;0.10;;;11.90;99.90;;;;;;4857063;29;20060;-78
2022/10/25 00:30:33;;;;;;;0.10;0.10;;;11.90;99.90;;;;;;4928524;29;20051;-77
2022/10/25 00:33:18;;;;;;;0.10;0.10;;;11.90;99.90;;;;;;4965539;28;20027;-76
2022/10/25 00:35:44;;;;;;;0.20;0.20;;;11.90;99.90;;;;;;4963832;29;20047;-78
2022/10/25 00:38:10;;;;;;;8.90;6.93;;;11.90;99.90;;;;;;4965028;28;20046;-77
2022/10/25 00:40:36;;;;;;;0.40;0.40;;;11.90;99.90;;;;;;4960790;29;20031;-77
2022/10/25 00:43:02;;;;;;;0.13;0.13;;;12.00;99.90;;;;;;4960937;29;20039;-88
2022/10/25 00:45:28;;;;;;;0.10;0.10;;;11.90;99.90;;;;;;4962918;28;20326;-80
2022/10/25 00:48:03;;;;;;;0.10;0.10;;;11.90;99.90;;;;;;4966511;29;20011;-79
2022/10/25 00:50:42;;;;;;;0.10;0.10;;;11.90;99.90;;;;;;4950847;29;20130;-77
2022/10/25 00:53:13;;;;;;;0.32;0.32;;;12.00;99.90;;;;;;4952850;29;20094;-76
2022/10/25 00:55:44;;;;;;;4.85;4.57;;;11.90;99.90;;;;;;4961688;29;20035;-79
2022/10/25 00:58:17;;;;;;;0.10;0.10;;;11.90;99.90;;;;;;4966769;29;20035;-78
2022/10/25 01:00:46;;;;;;;0.10;0.10;;;11.90;99.90;;;;;;4948297;29;20015;-78
2022/10/25 01:03:22;;;;;;;0.10;0.10;;;11.80;99.90;;;;;;4964611;28;20066;-77
2022/10/25 01:05:50;;;;;;;19.75;15.65;;;11.70;99.90;;;;;;4966959;29;20050;-76
2022/10/25 01:08:19;;;;;;;0.20;0.20;;;11.70;99.90;;;;;;4966401;29;20027;-76
2022/10/25 01:10:46;;;;;;;0.10;0.10;;;11.70;99.90;;;;;;4966029;28;20028;-78
2022/10/25 01:13:14;;;;;;;0.10;0.10;;;11.70;99.90;;;;;;4967700;28;20026;-76
2022/10/25 01:16:00;;;;;;;18.25;9.43;;;11.70;99.90;;;;;;4972277;28;20027;-78
2022/10/25 01:19:08;;;;;;;0.10;0.10;;;11.70;99.90;;;;;;4972252;29;20035;-77
2022/10/25 01:21:40;;;;;;;0.10;0.10;;;11.60;99.90;;;;;;4875472;29;20041;-76
2022/10/25 01:24:38;;;;;;;0.20;0.20;;;11.50;99.90;;;;;;4876135;29;20070;-77
2022/10/25 01:27:09;;;;;;;0.10;0.10;;;11.50;99.90;;;;;;4856420;29;20047;-77
2022/10/25 01:29:59;;;;;;;0.00;0.00;;;12.70;99.90;;;;;;4873658;29;20075;-76
2022/10/25 01:32:40;;;;;;;0.40;0.40;;;11.50;99.90;;;;;;4874104;29;20057;-77
2022/10/25 01:35:32;;;;;;;0.00;0.00;;;11.40;99.90;;;;;;4874688;29;20033;-77
2022/10/25 01:38:19;;;;;;;0.47;0.47;;;11.40;99.90;;;;;;4838549;29;20046;-77
2022/10/25 01:40:47;;;;;;;0.95;0.95;;;11.40;99.90;;;;;;4836025;29;20042;-76
2022/10/25 01:43:21;;;;;;;0.10;0.10;;;11.40;99.90;;;;;;4836608;29;20056;-77
2022/10/25 01:46:19;;;;;;;0.00;0.00;;;11.30;99.90;;;;;;4835827;29;20017;-77
2022/10/25 01:48:49;;;;;;;0.10;0.10;;;11.40;99.90;;;;;;4840062;29;20043;-75
2022/10/25 01:51:17;;;;;;;0.40;0.40;;;11.30;99.90;;;;;;4838871;29;20066;-77
2022/10/25 01:54:00;;;;;;;0.10;0.10;;;12.00;99.90;;;;;;4837650;29;20042;-77
2022/10/25 01:56:30;;;;;;;2.60;2.40;;;11.40;99.90;;;;;;4852880;29;20041;-78
2022/10/25 01:59:17;;;;;;;0.10;0.10;;;11.50;99.90;;;;;;4893734;29;20563;-77
2022/10/25 02:02:18;;;;;;;2.33;2.22;;;11.50;99.90;;;;;;4892882;29;20038;-77
2022/10/25 02:05:12;;;;;;;0.10;0.10;;;11.50;99.90;;;;;;4894070;29;20057;-76
2022/10/25 02:07:42;;;;;;;0.10;0.10;;;11.50;99.90;;;;;;4893774;29;20025;-77
2022/10/25 02:10:40;;;;;;;0.00;0.00;;;11.50;99.90;;;;;;4893417;29;20036;-76
2022/10/25 02:13:26;;;;;;;0.10;0.10;;;11.40;99.90;;;;;;4894428;29;20021;-80
2022/10/25 02:16:14;;;;;;;0.10;0.10;;;11.40;99.90;;;;;;4958138;28;20082;-77
2022/10/25 02:18:45;;;;;;;0.10;0.10;;;11.40;99.90;;;;;;4971720;29;20039;-78
2022/10/25 02:21:15;;;;;;;0.10;0.10;;;11.30;99.90;;;;;;4971504;28;20030;-76
2022/10/25 02:23:41;;;;;;;0.10;0.10;;;11.30;99.90;;;;;;4971556;29;20051;-76
2022/10/25 02:26:10;;;;;;;0.10;0.10;;;11.30;99.90;;;;;;4966611;28;20015;-77
2022/10/25 02:28:38;;;;;;;0.10;0.10;;;11.30;99.90;;;;;;4971711;29;20035;-77
2022/10/25 02:31:11;;;;;;;0.03;0.03;;;11.30;99.90;;;;;;4936800;29;20051;-77
2022/10/25 02:33:37;;;;;;;0.10;0.10;;;11.20;99.90;;;;;;4951710;29;20087;-77
2022/10/25 02:36:18;;;;;;;0.10;0.10;;;11.20;99.90;;;;;;4971246;28;20023;-77
2022/10/25 02:38:45;;;;;;;11.20;9.77;;;11.20;99.90;;;;;;4970439;28;20062;-76
2022/10/25 02:41:11;;;;;;;0.10;0.10;;;11.20;99.90;;;;;;4971984;29;20043;-78
2022/10/25 02:44:00;;;;;;;0.00;0.00;;;11.20;99.90;;;;;;4972894;29;20071;-77
2022/10/25 02:46:29;;;;;;;0.08;0.08;;;11.20;99.90;;;;;;4953163;29;20222;-77
2022/10/25 02:49:00;;;;;;;0.00;0.00;;;11.20;99.90;;;;;;4968444;29;20027;-77
2022/10/25 02:51:25;;;;;;;0.10;0.10;;;11.10;99.90;;;;;;4970975;29;20019;-75
2022/10/25 02:53:51;;;;;;;0.10;0.10;;;11.10;99.90;;;;;;4968944;28;20043;-76
2022/10/25 02:56:22;;;;;;;1.85;1.75;;;11.10;99.90;;;;;;4966432;28;20040;-76
2022/10/25 02:58:49;;;;;;;0.10;0.10;;;11.10;99.90;;;;;;4969497;29;20055;-76
2022/10/25 03:01:18;;;;;;;0.10;0.10;;;11.10;99.90;;;;;;4969513;29;20092;-76
2022/10/25 03:03:50;;;;;;;0.10;0.10;;;11.10;99.90;;;;;;4965625;28;20098;-77
2022/10/25 03:06:37;;;;;;;0.10;0.10;;;11.20;99.90;;;;;;4962086;29;20049;-77
2022/10/25 03:09:04;;;;;;;0.00;0.00;;;11.10;99.90;;;;;;4961366;28;20027;-81
2022/10/25 03:11:30;;;;;;;0.10;0.10;;;11.10;99.90;;;;;;4963647;29;20043;-76
2022/10/25 03:13:58;;;;;;;0.05;0.05;;;11.10;99.90;;;;;;4970835;29;20054;-77
2022/10/25 03:16:24;;;;;;;0.57;0.57;;;11.10;99.90;;;;;;4969283;29;20035;-77
2022/10/25 03:18:49;;;;;;;0.10;0.10;;;11.10;99.90;;;;;;4972426;29;20032;-76
2022/10/25 03:21:15;;;;;;;2.08;2.03;;;11.10;99.90;;;;;;4970488;28;20082;-78
2022/10/25 03:23:44;;;;;;;0.10;0.10;;;11.10;99.90;;;;;;4969051;29;20034;-76
2022/10/25 03:26:10;;;;;;;0.10;0.10;;;11.10;99.90;;;;;;4971833;29;20020;-76
2022/10/25 03:28:38;;;;;;;1.35;1.35;;;11.10;99.90;;;;;;4952843;29;20066;-77
2022/10/25 03:31:12;;;;;;;10.32;8.20;;;11.00;99.90;;;;;;4969429;29;20219;-77
2022/10/25 03:33:38;;;;;;;0.10;0.10;;;11.00;99.90;;;;;;4967907;29;20057;-76
2022/10/25 03:36:19;;;;;;;0.10;0.10;;;11.00;99.90;;;;;;4951762;29;20027;-77
2022/10/25 03:38:47;;;;;;;0.10;0.10;;;11.00;99.90;;;;;;4969380;28;20029;-77
2022/10/25 03:41:12;;;;;;;0.10;0.10;;;11.00;99.90;;;;;;4969695;29;20114;-77
2022/10/25 03:43:40;;;;;;;0.10;0.10;;;11.00;99.90;;;;;;4969046;28;20055;-77
2022/10/25 03:46:06;;;;;;;0.10;0.10;;;11.00;99.90;;;;;;4969062;28;20042;-78
2022/10/25 03:48:32;;;;;;;2.70;2.63;;;10.90;99.90;;;;;;4970193;29;20026;-76
2022/10/25 03:51:03;;;;;;;4.35;4.03;;;11.00;99.90;;;;;;4970740;29;20015;-77
2022/10/25 03:53:29;;;;;;;0.00;0.00;;;11.00;99.90;;;;;;4969323;29;20020;-76
2022/10/25 03:55:55;;;;;;;0.10;0.10;;;11.00;99.90;;;;;;4968744;28;20041;-77
2022/10/25 03:58:22;;;;;;;0.10;0.10;;;10.90;99.90;;;;;;4969077;29;20035;-77
2022/10/25 04:00:48;;;;;;;0.10;0.10;;;10.90;99.90;;;;;;4966878;29;20019;-76
2022/10/25 04:03:17;;;;;;;0.20;0.20;;;10.90;99.90;;;;;;4964777;29;20031;-77
2022/10/25 04:05:43;;;;;;;0.00;0.00;;;10.80;99.90;;;;;;4968898;29;20055;-77
2022/10/25 04:08:08;;;;;;;0.10;0.10;;;10.80;99.90;;;;;;4970628;29;20012;-76
2022/10/25 04:10:34;;;;;;;0.10;0.10;;;10.80;99.90;;;;;;4968382;29;20027;-76
2022/10/25 04:13:00;;;;;;;0.80;0.80;;;10.80;99.90;;;;;;4955985;29;20019;-77
2022/10/25 04:15:26;;;;;;;0.10;0.10;;;10.80;99.90;;;;;;4950645;29;20063;-76
2022/10/25 04:17:56;;;;;;;0.00;0.00;;;10.80;99.90;;;;;;4968772;29;20055;-76
2022/10/25 04:20:21;;;;;;;0.03;0.03;;;10.80;99.90;;;;;;4968776;29;20071;-77
2022/10/25 04:22:55;;;;;;;0.00;0.00;;;10.80;99.90;;;;;;4953278;28;20031;-76
2022/10/25 04:25:22;;;;;;;0.05;0.05;;;10.90;99.90;;;;;;4969217;29;20029;-77
2022/10/25 04:27:48;;;;;;;0.10;0.10;;;10.80;99.90;;;;;;4970146;28;20017;-77
2022/10/25 04:30:17;;;;;;;10.95;10.13;;;10.80;99.90;;;;;;4952948;29;20031;-78
2022/10/25 04:32:44;;;;;;;5.68;5.38;;;10.70;99.90;;;;;;4970216;28;20095;-76
2022/10/25 04:35:19;;;;;;;0.10;0.10;;;10.70;99.90;;;;;;4969991;28;20083;-77
2022/10/25 04:37:46;;;;;;;0.10;0.10;;;10.70;99.90;;;;;;4952533;29;20083;-77
2022/10/25 04:40:14;;;;;;;0.10;0.10;;;10.70;99.90;;;;;;4968327;29;20026;-77
2022/10/25 04:42:40;;;;;;;2.78;2.63;;;10.60;99.90;;;;;;4963903;29;20023;-76
2022/10/25 04:45:12;;;;;;;6.00;5.60;;;10.60;99.90;;;;;;4959211;29;20529;-76
2022/10/25 04:47:39;;;;;;;0.10;0.10;;;10.60;99.90;;;;;;4950552;29;20051;-77
2022/10/25 04:50:05;;;;;;;0.10;0.10;;;10.60;99.90;;;;;;4968016;29;20031;-77
2022/10/25 04:52:54;;;;;;;0.55;0.55;;;10.60;99.90;;;;;;4966086;29;20023;-76
2022/10/25 04:55:20;;;;;;;0.10;0.10;;;10.50;99.90;;;;;;4934066;29;20105;-76
2022/10/25 04:57:45;;;;;;;0.10;0.10;;;10.50;99.90;;;;;;4963960;28;20098;-77
2022/10/25 05:00:13;;;;;;;0.10;0.10;;;10.60;99.90;;;;;;4962964;29;20023;-76
2022/10/25 05:02:39;;;;;;;0.10;0.10;;;10.60;99.90;;;;;;4968819;29;20019;-78
2022/10/25 05:05:05;;;;;;;0.10;0.10;;;10.50;99.90;;;;;;4956803;29;20023;-77
2022/10/25 05:07:31;;;;;;;0.10;0.10;;;10.50;99.90;;;;;;4949052;29;20301;-77
2022/10/25 05:09:56;;;;;;;1.45;1.45;;;10.50;99.90;;;;;;4949509;28;20593;-77
2022/10/25 05:12:22;;;;;;;0.10;0.10;;;10.50;99.90;;;;;;4957390;28;20062;-77
2022/10/25 05:14:48;;;;;;;0.10;0.10;;;10.50;99.90;;;;;;4962137;28;20035;-77
2022/10/25 05:17:14;;;;;;;0.98;0.98;;;10.50;99.90;;;;;;4962020;29;20486;-78
2022/10/25 05:19:39;;;;;;;0.10;0.10;;;10.50;99.90;;;;;;4959216;29;20131;-77
2022/10/25 05:22:05;;;;;;;1.15;1.15;;;10.50;99.90;;;;;;4956728;29;20071;-78
2022/10/25 05:24:31;;;;;;;0.30;0.30;;;10.50;99.90;;;;;;4955509;29;20019;-77
2022/10/25 05:26:58;;;;;;;0.00;0.00;;;10.50;99.90;;;;;;4956913;29;20076;-77
2022/10/25 05:29:26;;;;;;;0.10;0.10;;;10.50;99.90;;;;;;4957500;29;20050;-77
2022/10/25 05:31:53;;;;;;;0.10;0.10;;;10.50;99.90;;;;;;4960978;29;20043;-77
2022/10/25 05:34:21;;;;;;;0.10;0.10;;;10.50;99.90;;;;;;4963144;29;20502;-78
2022/10/25 05:36:47;;;;;;;0.08;0.08;;;10.50;99.90;;;;;;4959411;29;20067;-77
2022/10/25 05:39:13;;;;;;;0.00;0.00;;;10.50;99.90;;;;;;4962959;28;20023;-82
2022/10/25 05:41:38;;;;;;;0.10;0.10;;;10.60;99.90;;;;;;4961881;29;20434;-79
2022/10/25 05:44:06;;;;;;;0.10;0.10;;;10.60;99.90;;;;;;4941882;28;20047;-78
2022/10/25 05:46:33;;;;;;;3.30;3.15;;;10.70;99.90;;;;;;4960578;29;20027;-76
2022/10/25 05:48:59;;;;;;;0.10;0.10;;;10.70;99.90;;;;;;4942032;29;20427;-76
2022/10/25 05:51:28;;;;;;;25.98;9.05;;;10.80;99.90;;;;;;4932743;29;20246;-78
2022/10/25 05:54:02;;;;;;;0.10;0.10;;;10.80;99.90;;;;;;4960688;28;20033;-76
2022/10/25 05:56:49;;;;;;;0.10;0.10;;;10.90;99.90;;;;;;4964369;29;20042;-85
2022/10/25 05:59:16;;;;;;;0.20;0.20;;;11.00;99.90;;;;;;4959977;28;20024;-80
2022/10/25 06:01:46;;;;;;;0.10;0.10;;;11.10;99.90;;;;;;4962564;29;20162;-77
2022/10/25 06:04:13;;;;;;;0.88;0.85;;;11.40;99.90;;;;;;4958481;28;20481;-76
2022/10/25 06:06:39;;;;;;;0.10;0.10;;;11.20;99.90;;;;;;4957599;29;20117;-76
2022/10/25 06:09:07;;;;;;;0.10;0.10;;;11.40;99.90;;;;;;4949073;29;20027;-77
2022/10/25 06:11:34;;;;;;;0.10;0.10;;;11.40;99.90;;;;;;4947268;28;20027;-77
2022/10/25 06:13:59;;;;;;;0.10;0.10;;;11.50;99.90;;;;;;4944398;28;20054;-77
2022/10/25 06:16:25;;;;;;;21.20;8.30;;;11.60;99.90;;;;;;4944072;28;20087;-77
2022/10/25 06:18:53;;;;;;;5.25;5.05;;;11.70;99.90;;;;;;4944733;28;20016;-77
2022/10/25 06:21:22;;;;;;;0.10;0.10;;;11.70;99.90;;;;;;4944339;28;20218;-77
2022/10/25 06:23:50;;;;;;;0.20;0.20;;;11.80;99.90;;;;;;4913303;29;20246;-77
2022/10/25 06:26:21;;;;;;;0.15;0.15;;;11.80;99.90;;;;;;4950369;28;20140;-77
2022/10/25 06:28:52;;;;;;;0.10;0.10;;;11.80;99.90;;;;;;4949829;29;20333;-77
2022/10/25 06:31:21;;;;;;;0.20;0.20;;;12.00;99.90;;;;;;4950556;28;20027;-80
2022/10/25 06:33:48;;;;;;;0.10;0.10;;;12.10;99.90;;;;;;4946004;28;20102;-79
2022/10/25 06:36:17;;;;;;;0.10;0.10;;;12.20;99.90;;;;;;4943924;29;20027;-82
2022/10/25 06:38:44;;;;;;;6.57;6.32;;;12.30;99.90;;;;;;4942831;29;20038;-78
2022/10/25 06:41:15;;;;;;;10.52;10.05;;;12.40;99.90;;;;;;4942826;28;20041;-78
2022/10/25 06:43:41;;;;;;;0.10;0.10;;;12.50;99.90;;;;;;4942199;28;20055;-85
2022/10/25 06:46:09;;;;;;;0.10;0.10;;;12.50;99.90;;;;;;4941989;28;20341;-78
2022/10/25 06:48:35;;;;;;;0.20;0.20;;;12.60;99.90;;;;;;4942499;28;20531;-78
2022/10/25 06:51:02;;;;;;;0.10;0.10;;;12.70;99.90;;;;;;4941853;28;20024;-77
2022/10/25 06:53:28;;;;;;;0.10;0.10;;;12.80;99.90;;;;;;4941481;28;20609;-78
2022/10/25 06:55:58;;;;;;;0.10;0.10;;;13.10;99.90;;;;;;4941487;28;20309;-79
2022/10/25 06:58:24;;;;;;;0.15;0.15;;;13.10;99.90;;;;;;4941509;28;20123;-79
2022/10/25 07:00:50;;;;;;;0.28;0.28;;;13.30;99.90;;;;;;4924234;29;20450;-82
2022/10/25 07:03:16;;;;;;;0.20;0.20;;;;;;;;;;4941811;28;20700;-81
2022/10/25 07:05:42;;;;;;;0.73;0.73;;;13.80;99.90;;;;;;4942028;28;20211;-78
2022/10/25 07:08:07;;;;;;;0.20;0.20;;;13.90;99.90;;;;;;4941413;28;20369;-77
2022/10/25 07:10:33;;;;;;;0.10;0.10;;;14.00;99.90;;;;;;4940673;28;20218;-84
2022/10/25 07:12:59;;;;;;;9.13;3.53;;;14.10;99.90;;;;;;4940903;28;20053;-86
2022/10/25 07:15:24;;;;;;;0.10;0.10;;;14.20;99.90;;;;;;4941161;28;20344;-85
2022/10/25 07:17:53;;;;;;;0.20;0.20;;;14.40;99.90;;;;;;4941086;29;20047;-80
2022/10/25 07:20:18;;;;;;;3.35;2.85;;;14.50;99.90;;;;;;4941514;28;20039;-82
2022/10/25 07:22:45;;;;;;;0.20;0.20;;;14.60;99.90;;;;;;4941240;29;20101;-77
2022/10/25 07:25:10;;;;;;;0.10;0.10;;;15.80;99.90;;;;;;4940938;28;20372;-78
2022/10/25 07:27:36;;;;;;;0.20;0.20;;;14.80;99.90;;;;;;4941395;28;20098;-75
2022/10/25 07:30:02;;;;;;;0.20;0.20;;;14.80;99.90;;;;;;4941029;29;20258;-77
2022/10/25 07:32:28;;;;;;;2.30;1.88;;;14.90;99.90;;;;;;4941033;29;20031;-84
2022/10/25 07:34:53;;;;;;;0.40;0.40;;;14.90;99.90;;;;;;4941095;29;20098;-86
2022/10/25 07:37:19;;;;;;;2.72;2.63;;;14.90;99.90;;;;;;4940875;29;20039;-76
2022/10/25 07:39:45;;;;;;;1.23;1.20;;;14.90;99.90;;;;;;4940862;29;20023;-76
2022/10/25 07:42:10;;;;;;;0.32;0.32;;;14.90;99.90;;;;;;4940940;28;20186;-78
2022/10/25 07:44:36;;;;;;;0.20;0.20;;;15.00;99.90;;;;;;4941066;28;20039;-77
2022/10/25 07:47:02;;;;;;;0.10;0.10;;;15.00;99.90;;;;;;4940916;29;20028;-77
2022/10/25 07:49:28;;;;;;;1.27;1.27;;;15.00;99.90;;;;;;4924947;29;20430;-76
2022/10/25 07:51:53;;;;;;;0.90;0.90;;;15.00;99.90;;;;;;4943882;29;20243;-83
2022/10/25 07:54:19;;;;;;;0.20;0.20;;;14.90;99.90;;;;;;4943213;28;20073;-81
2022/10/25 07:56:45;;;;;;;0.20;0.20;;;15.00;99.90;;;;;;4943386;28;20091;-77
2022/10/25 07:59:10;;;;;;;0.73;0.73;;;15.00;99.90;;;;;;4944415;28;20317;-82
2022/10/25 08:01:36;;;;;;;0.20;0.20;;;15.10;99.90;;;;;;4942964;29;20336;-81
2022/10/25 08:04:02;;;;;;;0.15;0.15;;;15.20;99.90;;;;;;4923389;29;20035;-79
2022/10/25 08:06:28;;;;;;;1.75;1.65;;;15.20;99.90;;;;;;4941251;28;20098;-77
2022/10/25 08:08:53;;;;;;;0.20;0.20;;;15.30;99.90;;;;;;4941280;28;20530;-77
2022/10/25 08:11:19;;;;;;;0.20;0.20;;;15.30;99.90;;;;;;4941659;29;20093;-83
2022/10/25 08:13:48;;;;;;;0.45;0.45;;;15.40;99.90;;;;;;4941241;28;20505;-78
2022/10/25 08:16:14;;;;;;;0.10;0.10;;;15.50;99.90;;;;;;4941374;29;20270;-75
2022/10/25 08:18:42;;;;;;;19.70;6.03;;;15.50;99.90;;;;;;4940440;29;20050;-79
2022/10/25 08:21:08;;;;;;;0.40;0.40;;;15.60;99.90;;;;;;4941037;28;20027;-78
2022/10/25 08:23:33;;;;;;;1.10;1.10;;;15.60;99.90;;;;;;4939350;28;20020;-75
2022/10/25 08:26:01;;;;;;;0.50;0.50;;;15.70;99.90;;;;;;4939572;28;20023;-79
2022/10/25 08:28:27;;;;;;;2.70;2.60;;;15.60;99.90;;;;;;4940109;29;20320;-76
2022/10/25 08:30:54;;;;;;;2.42;2.33;;;15.60;99.90;;;;;;4939710;28;20032;-79
2022/10/25 08:33:20;;;;;;;0.17;0.17;;;15.50;99.90;;;;;;4939785;28;20304;-76
2022/10/25 08:35:45;;;;;;;10.80;5.25;;;15.50;99.90;;;;;;4939771;28;20027;-80
2022/10/25 08:38:14;;;;;;;5.03;2.63;;;15.50;99.90;;;;;;4940097;28;20223;-77
2022/10/25 08:40:43;;;;;;;0.30;0.30;;;15.50;99.90;;;;;;4939956;28;20052;-80
2022/10/25 08:43:23;;;;;;;0.30;0.30;;;15.40;99.90;;;;;;4940183;29;20019;-83
2022/10/25 08:46:04;;;;;;;0.52;0.52;;;15.40;99.90;;;;;;4940267;28;20187;-82
2022/10/25 08:48:37;;;;;;;0.55;0.55;;;15.40;99.90;;;;;;4939913;28;20150;-80
2022/10/25 08:51:13;;;;;;;0.95;0.95;;;15.30;99.90;;;;;;4940936;28;20150;-83
2022/10/25 08:53:47;;;;;;;3.47;2.10;;;15.20;99.90;;;;;;4939902;29;20541;-79
2022/10/25 08:56:15;;;;;;;0.20;0.20;;;15.20;99.90;;;;;;4939189;28;20084;-77
2022/10/25 08:58:54;;;;;;;0.40;0.40;;;15.20;99.90;;;;;;4939602;28;20326;-83
2022/10/25 09:01:27;;;;;;;0.88;0.88;;;15.20;99.90;;;;;;4939244;28;20430;-81
2022/10/25 09:03:53;;;;;;;4.53;4.20;;;15.10;99.90;;;;;;4940000;28;20015;-76
2022/10/25 09:06:39;;;;;;;1.63;1.55;;;15.10;99.90;;;;;;4939911;28;20027;-75
2022/10/25 09:09:15;;;;;;;0.85;0.85;;;15.20;99.90;;;;;;4938752;29;20298;-78
2022/10/25 09:12:11;;;;;;;0.65;0.65;;;15.20;99.90;;;;;;4940401;28;20114;-82
2022/10/25 09:14:52;;;;;;;0.17;0.17;;;15.20;99.90;;;;;;4942189;28;20272;-83
2022/10/25 09:17:26;;;;;;;0.40;0.40;;;15.30;99.90;;;;;;4939783;28;20126;-76
2022/10/25 09:19:59;;;;;;;4.35;4.00;;;15.30;99.90;;;;;;4940562;29;20554;-80
2022/10/25 09:22:33;;;;;;;0.13;0.13;;;15.50;99.90;;;;;;4939938;28;20034;-80
2022/10/25 09:25:15;;;;;;;0.30;0.30;;;15.60;99.90;;;;;;4922491;29;20086;-78
2022/10/25 09:27:52;;;;;;;1.50;1.40;;;15.60;99.90;;;;;;4939981;29;20165;-75
2022/10/25 09:30:18;;;;;;;7.68;7.03;;;15.70;99.90;;;;;;4940209;29;20031;-84
2022/10/25 09:32:50;;;;;;;10.13;7.22;;;15.80;99.90;;;;;;4940378;29;20333;-78
2022/10/25 09:35:24;;;;;;;1.15;1.15;;;15.90;99.90;;;;;;4942433;28;20054;-86
2022/10/25 09:38:07;;;;;;;1.13;1.13;;;15.90;99.90;;;;;;4943530;28;20079;-78
2022/10/25 09:40:44;;;;;;;3.92;3.03;;;16.00;99.90;;;;;;4943749;29;20027;-83
2022/10/25 09:43:24;;;;;;;3.15;2.95;;;16.10;99.90;;;;;;4943533;28;20027;-80
2022/10/25 09:45:56;;;;;;;5.68;3.85;;;16.10;99.90;;;;;;4943696;28;20497;-76
2022/10/25 09:48:30;;;;;;;1.63;1.52;;;16.10;99.90;;;;;;4943564;28;20058;-81
2022/10/25 09:51:14;;;;;;;5.40;5.00;;;16.20;99.90;;;;;;4943521;29;20035;-76
2022/10/25 09:53:42;;;;;;;3.88;3.50;;;16.30;99.90;;;;;;4943076;28;20339;-79
2022/10/25 09:56:08;;;;;;;0.10;0.10;;;14.50;99.90;;;;;;4943055;29;20097;-83
2022/10/25 09:58:43;;;;;;;1.45;1.35;;;16.30;99.90;;;;;;4943415;28;20027;-79
2022/10/25 10:01:23;;;;;;;6.03;5.82;;;16.30;99.90;;;;;;4943433;28;20113;-81
2022/10/25 10:03:49;;;;;;;3.33;3.13;;;16.50;99.90;;;;;;4944212;28;20086;-81
2022/10/25 10:06:30;;;;;;;0.40;0.40;;;16.60;99.90;;;;;;4943366;29;20027;-77
2022/10/25 10:09:02;;;;;;;3.38;3.08;;;16.60;99.90;;;;;;4943300;29;20321;-78
2022/10/25 10:11:29;;;;;;;6.22;5.85;;;16.50;99.90;;;;;;4942858;29;20019;-79
2022/10/25 10:14:00;;;;;;;6.00;5.78;;;16.50;99.90;;;;;;4943175;28;20050;-78
2022/10/25 10:16:31;;;;;;;3.53;3.22;;;16.30;99.90;;;;;;4943606;28;20126;-82
2022/10/25 10:19:23;;;;;;;2.78;2.58;;;16.40;99.90;;;;;;4944287;28;20206;-83
2022/10/25 10:21:58;;;;;;;4.25;3.95;;;16.50;99.90;;;;;;4945416;28;20570;-82
2022/10/25 10:24:29;;;;;;;1.27;1.25;;;16.60;99.90;;;;;;4943308;28;20276;-81
2022/10/25 10:26:58;;;;;;;3.60;2.05;;;16.90;99.90;;;;;;4943328;29;20035;-76
2022/10/25 10:29:26;;;;;;;1.70;1.60;;;17.20;99.90;;;;;;4942683;29;20027;-77
2022/10/25 10:32:01;;;;;;;2.45;2.30;;;17.40;99.80;;;;;;4942567;28;20027;-77
2022/10/25 10:34:27;;;;;;;0.47;0.47;;;17.70;99.20;;;;;;4941873;28;20453;-77
2022/10/25 10:37:13;;;;;;;1.25;1.23;;;17.80;98.90;;;;;;4941430;28;20311;-77
2022/10/25 10:39:58;;;;;;;0.90;0.90;;;17.90;98.40;;;;;;4925055;29;20027;-75
2022/10/25 10:42:34;;;;;;;4.55;4.15;;;17.80;98.00;;;;;;4942426;28;20503;-79
2022/10/25 10:45:02;;;;;;;0.47;0.47;;;17.80;98.40;;;;;;4925154;28;20069;-76
2022/10/25 10:47:38;;;;;;;3.00;2.63;;;17.80;98.20;;;;;;4941158;29;20590;-77
2022/10/25 10:50:21;;;;;;;0.40;0.40;;;17.90;98.10;;;;;;4942327;28;20081;-76
2022/10/25 10:53:01;;;;;;;10.52;10.00;;;17.90;98.20;;;;;;4942190;28;20028;-89
2022/10/25 10:55:34;;;;;;;1.52;1.42;;;17.90;98.00;;;;;;4942337;29;20544;-82
2022/10/25 10:58:06;;;;;;;0.30;0.30;;;18.00;98.00;;;;;;4941787;28;20046;-77
2022/10/25 11:00:33;;;;;;;0.67;0.67;;;17.90;98.10;;;;;;4942256;28;20071;-83
2022/10/25 11:02:59;;;;;;;0.20;0.20;;;18.00;98.00;;;;;;4941747;28;20131;-76
2022/10/25 11:05:36;;;;;;;0.50;0.50;;;18.10;97.80;;;;;;4941718;29;20024;-78
2022/10/25 11:08:07;;;;;;;6.63;3.53;;;18.10;97.60;;;;;;4942168;28;20024;-83
2022/10/25 11:10:35;;;;;;;0.30;0.30;;;18.10;97.50;;;;;;4942564;28;20438;-77
2022/10/25 11:13:11;;;;;;;2.78;2.67;;;18.20;97.40;;;;;;4942201;29;20026;-81
2022/10/25 11:16:17;;;;;;;1.95;1.55;;;19.40;97.60;;;;;;4925155;29;20418;-81
2022/10/25 11:19:25;;;;;;;0.55;0.55;;;18.60;97.10;;;;;;4941254;28;20043;-84
2022/10/25 11:22:18;;;;;;;3.15;1.65;;;18.70;96.90;;;;;;4843937;29;20038;-78
2022/10/25 11:25:17;;;;;;;0.75;0.75;;;18.80;96.80;;;;;;4829059;29;20473;-78
2022/10/25 11:28:19;;;;;;;3.17;2.95;;;18.90;96.80;;;;;;4844273;29;20022;-82
2022/10/25 11:30:47;;;;;;;7.60;4.28;;;19.00;96.60;;;;;;4844241;29;20041;-82
2022/10/25 11:33:37;;;;;;;0.30;0.30;;;19.10;96.40;;;;;;4844714;29;20192;-77
2022/10/25 11:36:21;;;;;;;0.20;0.20;;;19.10;96.10;;;;;;4844529;29;20321;-78
2022/10/25 11:39:04;;;;;;;1.35;1.25;;;19.20;96.00;;;;;;4844052;29;20133;-79
2022/10/25 11:41:44;;;;;;;2.00;1.90;;;19.20;96.00;;;;;;4828760;29;20052;-77
2022/10/25 11:44:41;;;;;;;2.40;2.15;;;19.30;96.20;;;;;;4844340;29;20658;-78
2022/10/25 11:47:44;;;;;;;1.00;1.00;;;19.30;95.90;;;;;;4807512;29;20292;-78
2022/10/25 11:50:18;;;;;;;0.65;0.65;;;19.50;95.70;;;;;;4807327;29;20047;-78
2022/10/25 11:52:54;;;;;;;1.25;1.15;;;19.50;95.40;;;;;;4807261;29;20052;-76
2022/10/25 11:55:48;;;;;;;0.55;0.55;;;19.60;95.00;;;;;;4806648;29;20074;-76
2022/10/25 11:58:18;;;;;;;3.15;2.95;;;19.70;94.90;;;;;;4810236;29;20037;-80
2022/10/25 12:00:55;;;;;;;17.38;4.22;;;19.80;94.70;;;;;;4862219;29;20025;-77
2022/10/25 12:03:42;;;;;;;1.48;1.38;;;19.90;94.70;;;;;;4846165;29;20128;-78
2022/10/25 12:06:22;;;;;;;9.65;4.93;;;20.00;94.10;;;;;;4862225;29;20429;-77
2022/10/25 12:09:01;;;;;;;11.02;7.38;;;20.10;93.90;;;;;;4861260;29;20029;-77
2022/10/25 12:11:40;;;;;;;8.00;6.40;;;20.10;93.70;;;;;;4861688;29;20060;-77
2022/10/25 12:14:11;;;;;;;3.67;3.38;;;20.20;93.70;;;;;;4862151;29;20276;-86
2022/10/25 12:16:39;;;;;;;1.20;0.85;;;20.20;93.50;;;;;;4845857;29;20334;-80
2022/10/25 12:19:23;;;;;;;0.90;0.90;;;20.20;93.50;;;;;;4862422;29;20240;-84
2022/10/25 12:21:58;;;;;;;7.32;6.80;;;20.80;93.50;;;;;;4870237;29;20347;-78
2022/10/25 12:24:34;;;;;;;2.47;2.38;;;20.30;93.40;;;;;;4940714;28;20023;-77
2022/10/25 12:27:00;;;;;;;6.28;3.50;;;20.30;92.80;;;;;;4940723;28;20030;-83
2022/10/25 12:29:35;;;;;;;9.52;7.65;;;20.30;93.00;;;;;;4940442;28;20054;-78
2022/10/25 12:32:04;;;;;;;7.35;3.70;;;20.30;92.60;;;;;;4940628;28;20019;-80
2022/10/25 12:34:44;;;;;;;1.60;1.50;;;20.30;92.40;;;;;;4922918;29;20031;-79
2022/10/25 12:37:28;;;;;;;1.25;1.17;;;20.40;92.30;;;;;;4922659;29;20071;-82
2022/10/25 12:39:55;;;;;;;3.20;1.75;;;20.50;92.10;;;;;;4922654;29;20621;-78
2022/10/25 12:42:25;;;;;;;3.72;3.42;;;20.60;92.00;;;;;;4940360;28;20098;-77
2022/10/25 12:45:03;;;;;;;37.20;6.60;;;20.70;92.10;;;;;;4940619;28;20024;-81
2022/10/25 12:47:50;;;;;;;2.33;2.13;;;20.80;91.70;;;;;;4940149;28;20314;-77
2022/10/25 12:50:31;;;;;;;1.80;1.65;;;20.70;91.80;;;;;;4940050;29;20373;-77
2022/10/25 12:53:21;;;;;;;2.05;1.55;;;20.60;91.70;;;;;;4940599;29;20561;-78
2022/10/25 12:56:01;;;;;;;2.17;1.98;;;20.70;91.70;;;;;;4940379;28;20058;-81
2022/10/25 12:58:33;;;;;;;0.32;0.32;;;20.80;91.90;;;;;;4940891;28;20039;-82
2022/10/25 13:01:14;;;;;;;0.77;0.77;;;20.80;91.80;;;;;;4940468;28;20075;-82
2022/10/25 13:03:54;;;;;;;2.25;1.85;;;20.80;92.00;;;;;;4940587;28;20031;-83
2022/10/25 13:06:36;;;;;;;1.58;1.33;;;20.80;92.80;;;;;;4942589;28;20038;-82
2022/10/25 13:09:08;;;;;;;3.22;2.92;;;21.00;92.60;;;;;;4941170;28;20289;-78
2022/10/25 13:11:41;;;;;;;5.13;4.82;;;21.20;92.10;;;;;;4944167;28;20150;-78